sensor_id;sensor_type;location;lat;lon;timestamp;pressure;altitude;pressure_sealevel;temperature;humidity
50592;BME280;36548;50.506;30.834;2023-08-21T00:00:54;100073.45;;;26.15;56.08
50592;BME280;36548;50.506;30.834;2023-08-21T00:02:05;100080.66;;;26.16;56.08
50592;BME280;36548;50.506;30.834;2023-08-21T00:03:22;100068.22;;;26.27;56.03
50592;BME280;36548;50.506;30.834;2023-08-21T00:04:31;100073.03;;;26.18;56.01
50592;BME280;36548;50.506;30.834;2023-08-21T00:05:41;100074.73;;;26.19;55.93
50592;BME280;36548;50.506;30.834;2023-08-21T00:06:51;100077.48;;;26.19;55.94
50592;BME280;36548;50.506;30.834;2023-08-21T00:08:06;100075.00;;;26.31;55.95
50592;BME280;36548;50.506;30.834;2023-08-21T00:09:16;100079.19;;;26.20;55.80
50592;BME280;36548;50.506;30.834;2023-08-21T00:10:26;100074.73;;;26.19;55.86
50592;BME280;36548;50.506;30.834;2023-08-21T00:11:35;100071.77;;;26.20;55.75
50592;BME280;36548;50.506;30.834;2023-08-21T00:12:51;100072.25;;;26.31;55.81
50592;BME280;36548;50.506;30.834;2023-08-21T00:14:00;100077.48;;;26.19;55.83
50592;BME280;36548;50.506;30.834;2023-08-21T00:15:16;100080.71;;;26.29;56.01
50592;BME280;36548;50.506;30.834;2023-08-21T00:16:26;100090.61;;;26.17;55.93
50592;BME280;36548;50.506;30.834;2023-08-21T00:17:38;100082.33;;;26.10;56.17
50592;BME280;36548;50.506;30.834;2023-08-21T00:18:54;100070.94;;;26.20;56.33
50592;BME280;36548;50.506;30.834;2023-08-21T00:20:06;100083.58;;;26.08;56.48
50592;BME280;36548;50.506;30.834;2023-08-21T00:21:23;100075.78;;;26.18;56.77
50592;BME280;36548;50.506;30.834;2023-08-21T00:22:33;100084.63;;;26.07;56.75
50592;BME280;36548;50.506;30.834;2023-08-21T00:23:43;100083.79;;;26.06;56.85
50592;BME280;36548;50.506;30.834;2023-08-21T00:24:52;100088.84;;;26.02;56.87
50592;BME280;36548;50.506;30.834;2023-08-21T00:26:08;100086.12;;;26.09;57.09
50592;BME280;36548;50.506;30.834;2023-08-21T00:27:17;100093.02;;;25.98;57.28
50592;BME280;36548;50.506;30.834;2023-08-21T00:28:28;100090.06;;;26.00;57.33
50592;BME280;36548;50.506;30.834;2023-08-21T00:29:45;100081.28;;;26.11;57.28
50592;BME280;36548;50.506;30.834;2023-08-21T00:32:18;100085.50;;;26.07;57.55
50592;BME280;36548;50.506;30.834;2023-08-21T00:33:29;100094.93;;;25.98;57.61
50592;BME280;36548;50.506;30.834;2023-08-21T00:34:45;100091.00;;;26.07;57.64
50592;BME280;36548;50.506;30.834;2023-08-21T00:35:54;100089.64;;;25.96;57.70
50592;BME280;36548;50.506;30.834;2023-08-21T00:37:09;100088.42;;;26.06;57.74
50592;BME280;36548;50.506;30.834;2023-08-21T00:38:20;100088.34;;;25.92;57.83
50592;BME280;36548;50.506;30.834;2023-08-21T00:39:30;100087.69;;;25.90;58.01
50592;BME280;36548;50.506;30.834;2023-08-21T00:40:45;100089.43;;;25.98;58.19
50592;BME280;36548;50.506;30.834;2023-08-21T00:41:54;100088.10;;;25.87;58.33
50592;BME280;36548;50.506;30.834;2023-08-21T00:43:04;100092.97;;;25.85;58.35
50592;BME280;36548;50.506;30.834;2023-08-21T00:44:19;100082.84;;;25.92;58.44
50592;BME280;36548;50.506;30.834;2023-08-21T00:45:28;100088.93;;;25.81;58.49
50592;BME280;36548;50.506;30.834;2023-08-21T00:46:37;100095.47;;;25.80;58.63
50592;BME280;36548;50.506;30.834;2023-08-21T00:47:53;100084.10;;;25.90;58.66
50592;BME280;36548;50.506;30.834;2023-08-21T00:49:04;100092.06;;;25.78;58.73
50592;BME280;36548;50.506;30.834;2023-08-21T00:50:14;100087.43;;;25.78;58.74
50592;BME280;36548;50.506;30.834;2023-08-21T00:51:24;100088.27;;;25.79;58.85
50592;BME280;36548;50.506;30.834;2023-08-21T00:52:35;100094.81;;;25.78;58.85
50592;BME280;36548;50.506;30.834;2023-08-21T00:53:52;100086.81;;;25.83;58.94
50592;BME280;36548;50.506;30.834;2023-08-21T00:55:02;100089.09;;;25.73;59.09
50592;BME280;36548;50.506;30.834;2023-08-21T00:56:18;100085.97;;;25.82;59.13
50592;BME280;36548;50.506;30.834;2023-08-21T00:57:29;100087.39;;;25.72;59.18
50592;BME280;36548;50.506;30.834;2023-08-21T00:58:44;100084.93;;;25.83;59.13
50592;BME280;36548;50.506;30.834;2023-08-21T00:59:54;100087.39;;;25.72;59.14
50592;BME280;36548;50.506;30.834;2023-08-21T01:01:03;100084.64;;;25.72;59.22
50592;BME280;36548;50.506;30.834;2023-08-21T01:02:13;100084.01;;;25.69;59.25
50592;BME280;36548;50.506;30.834;2023-08-21T01:03:28;100083.19;;;25.76;59.46
50592;BME280;36548;50.506;30.834;2023-08-21T01:04:39;100084.80;;;25.63;59.65
50592;BME280;36548;50.506;30.834;2023-08-21T01:05:55;100082.52;;;25.74;59.74
50592;BME280;36548;50.506;30.834;2023-08-21T01:07:05;100085.21;;;25.60;59.75
50592;BME280;36548;50.506;30.834;2023-08-21T01:08:32;100079.55;;;25.68;59.88
50592;BME280;36548;50.506;30.834;2023-08-21T01:12:50;100082.88;;;25.57;60.03
50592;BME280;36548;50.506;30.834;2023-08-21T01:15:38;100078.63;;;25.55;60.08
50592;BME280;36548;50.506;30.834;2023-08-21T01:16:53;100077.75;;;25.54;60.18
50592;BME280;36548;50.506;30.834;2023-08-21T01:18:09;100081.01;;;25.64;60.26
50592;BME280;36548;50.506;30.834;2023-08-21T01:19:36;100083.25;;;25.54;60.24
50592;BME280;36548;50.506;30.834;2023-08-21T01:20:48;100084.53;;;25.51;60.30
50592;BME280;36548;50.506;30.834;2023-08-21T01:21:58;100084.53;;;25.51;60.54
50592;BME280;36548;50.506;30.834;2023-08-21T01:24:44;100077.75;;;25.54;60.71
50592;BME280;36548;50.506;30.834;2023-08-21T01:25:55;100086.97;;;25.40;60.87
50592;BME280;36548;50.506;30.834;2023-08-21T01:27:12;100084.48;;;25.45;61.06
50592;BME280;36548;50.506;30.834;2023-08-21T01:28:24;100084.17;;;25.33;61.28
50592;BME280;36548;50.506;30.834;2023-08-21T01:29:39;100084.69;;;25.43;61.36
50592;BME280;36548;50.506;30.834;2023-08-21T01:30:50;100088.63;;;25.34;61.29
50592;BME280;36548;50.506;30.834;2023-08-21T01:32:17;100092.20;;;25.34;61.26
50592;BME280;36548;50.506;30.834;2023-08-21T01:33:26;100089.66;;;25.33;61.25
50592;BME280;36548;50.506;30.834;2023-08-21T01:34:45;100082.11;;;25.42;61.37
50592;BME280;36548;50.506;30.834;2023-08-21T01:35:57;100090.88;;;25.30;61.45
50592;BME280;36548;50.506;30.834;2023-08-21T01:37:13;100086.34;;;25.38;61.50
50592;BME280;36548;50.506;30.834;2023-08-21T01:38:23;100089.38;;;25.28;61.61
50592;BME280;36548;50.506;30.834;2023-08-21T01:39:34;100094.70;;;25.29;61.63
50592;BME280;36548;50.506;30.834;2023-08-21T01:40:49;100090.12;;;25.37;61.69
50592;BME280;36548;50.506;30.834;2023-08-21T01:41:59;100093.39;;;25.25;61.79
50592;BME280;36548;50.506;30.834;2023-08-21T01:43:10;100093.56;;;25.24;61.78
50592;BME280;36548;50.506;30.834;2023-08-21T01:44:26;100092.20;;;25.34;61.98
50592;BME280;36548;50.506;30.834;2023-08-21T01:45:36;100093.56;;;25.24;61.94
50592;BME280;36548;50.506;30.834;2023-08-21T01:46:47;100095.47;;;25.23;62.08
50592;BME280;36548;50.506;30.834;2023-08-21T01:47:59;100094.44;;;25.24;62.07
50592;BME280;36548;50.506;30.834;2023-08-21T01:49:11;100104.38;;;25.25;62.10
50592;BME280;36548;50.506;30.834;2023-08-21T01:50:22;100094.23;;;25.26;62.17
50592;BME280;36548;50.506;30.834;2023-08-21T01:51:57;100088.22;;;25.37;62.19
50592;BME280;36548;50.506;30.834;2023-08-21T01:53:08;100094.23;;;25.26;62.16
50592;BME280;36548;50.506;30.834;2023-08-21T01:54:18;100097.19;;;25.24;62.20
50592;BME280;36548;50.506;30.834;2023-08-21T01:55:28;100091.48;;;25.26;62.28
50592;BME280;36548;50.506;30.834;2023-08-21T01:56:38;100089.38;;;25.28;62.35
50592;BME280;36548;50.506;30.834;2023-08-21T01:57:53;100096.78;;;25.27;62.17
50592;BME280;36548;50.506;30.834;2023-08-21T01:59:04;100096.98;;;25.26;62.23
50592;BME280;36548;50.506;30.834;2023-08-21T02:00:26;100095.63;;;25.37;62.32
50592;BME280;36548;50.506;30.834;2023-08-21T02:01:36;100095.27;;;25.25;62.23
50592;BME280;36548;50.506;30.834;2023-08-21T02:02:52;100089.66;;;25.33;62.41
50592;BME280;36548;50.506;30.834;2023-08-21T02:04:01;100092.93;;;25.22;62.57
50592;BME280;36548;50.506;30.834;2023-08-21T02:05:16;100093.28;;;25.33;62.53
50592;BME280;36548;50.506;30.834;2023-08-21T02:06:25;100095.67;;;25.22;62.45
50592;BME280;36548;50.506;30.834;2023-08-21T02:07:41;100088.13;;;25.30;62.57
50592;BME280;36548;50.506;30.834;2023-08-21T02:08:50;100101.37;;;25.20;62.60
50592;BME280;36548;50.506;30.834;2023-08-21T02:10:08;100097.44;;;25.29;62.64
50592;BME280;36548;50.506;30.834;2023-08-21T02:11:17;100093.54;;;25.17;62.68
50592;BME280;36548;50.506;30.834;2023-08-21T02:12:32;100092.32;;;25.26;62.77
50592;BME280;36548;50.506;30.834;2023-08-21T02:13:44;100093.74;;;25.15;62.78
50592;BME280;36548;50.506;30.834;2023-08-21T02:14:54;100106.20;;;25.18;62.83
50592;BME280;36548;50.506;30.834;2023-08-21T02:16:04;100102.82;;;25.16;62.68
50592;BME280;36548;50.506;30.834;2023-08-21T02:17:13;100103.45;;;25.18;62.80
50592;BME280;36548;50.506;30.834;2023-08-21T02:18:29;100098.91;;;25.32;62.73
50592;BME280;36548;50.506;30.834;2023-08-21T02:19:39;100098.63;;;25.20;62.49
50592;BME280;36548;50.506;30.834;2023-08-21T02:20:55;100102.73;;;25.31;62.59
50592;BME280;36548;50.506;30.834;2023-08-21T02:22:05;100104.13;;;25.20;62.65
50592;BME280;36548;50.506;30.834;2023-08-21T02:23:14;100109.21;;;25.23;62.56
50592;BME280;36548;50.506;30.834;2023-08-21T02:24:24;100105.42;;;25.24;62.44
50592;BME280;36548;50.506;30.834;2023-08-21T02:25:34;100097.19;;;25.24;62.28
50592;BME280;36548;50.506;30.834;2023-08-21T02:26:44;100109.21;;;25.23;62.46
50592;BME280;36548;50.506;30.834;2023-08-21T02:28:00;100090.33;;;25.35;62.47
50592;BME280;36548;50.506;30.834;2023-08-21T02:29:11;100093.39;;;25.25;62.31
50592;BME280;36548;50.506;30.834;2023-08-21T02:30:21;100098.69;;;25.27;62.21
50592;BME280;36548;50.506;30.834;2023-08-21T02:31:32;100099.32;;;25.29;62.15
50592;BME280;36548;50.506;30.834;2023-08-21T02:32:48;100096.92;;;25.41;62.03
50592;BME280;36548;50.506;30.834;2023-08-21T02:33:57;100101.86;;;25.30;62.08
50592;BME280;36548;50.506;30.834;2023-08-21T02:35:07;100100.19;;;25.29;62.12
50592;BME280;36548;50.506;30.834;2023-08-21T02:36:18;100098.69;;;25.27;62.11
50592;BME280;36548;50.506;30.834;2023-08-21T02:37:27;100100.36;;;25.28;62.30
50592;BME280;36548;50.506;30.834;2023-08-21T02:38:37;100102.27;;;25.27;62.16
50592;BME280;36548;50.506;30.834;2023-08-21T02:39:53;100096.86;;;25.34;62.23
50592;BME280;36548;50.506;30.834;2023-08-21T02:41:02;100102.88;;;25.23;62.32
50592;BME280;36548;50.506;30.834;2023-08-21T02:42:20;100105.31;;;25.32;62.51
50592;BME280;36548;50.506;30.834;2023-08-21T02:43:30;100103.92;;;25.22;62.34
50592;BME280;36548;50.506;30.834;2023-08-21T02:44:54;100100.66;;;25.33;62.36
50592;BME280;36548;50.506;30.834;2023-08-21T02:46:06;100106.66;;;25.22;62.35
50592;BME280;36548;50.506;30.834;2023-08-21T02:47:22;100096.86;;;25.34;62.23
50592;BME280;36548;50.506;30.834;2023-08-21T02:48:31;100103.52;;;25.25;62.26
50592;BME280;36548;50.506;30.834;2023-08-21T02:49:47;100096.86;;;25.34;62.24
50592;BME280;36548;50.506;30.834;2023-08-21T02:50:58;100099.06;;;25.24;62.34
50592;BME280;36548;50.506;30.834;2023-08-21T02:52:13;100090.33;;;25.35;62.47
50592;BME280;36548;50.506;30.834;2023-08-21T02:53:22;100100.97;;;25.23;62.30
50592;BME280;36548;50.506;30.834;2023-08-21T02:54:39;100102.73;;;25.31;62.40
50592;BME280;36548;50.506;30.834;2023-08-21T02:55:50;100103.28;;;25.19;62.55
50592;BME280;36548;50.506;30.834;2023-08-21T02:57:05;100098.91;;;25.32;62.63
50592;BME280;36548;50.506;30.834;2023-08-21T02:58:14;100096.28;;;25.17;62.53
50592;BME280;36548;50.506;30.834;2023-08-21T02:59:30;100093.39;;;25.25;62.70
50592;BME280;36548;50.506;30.834;2023-08-21T03:00:39;100098.77;;;25.12;62.90
50592;BME280;36548;50.506;30.834;2023-08-21T03:01:49;100096.66;;;25.14;63.08
50592;BME280;36548;50.506;30.834;2023-08-21T03:02:59;100096.28;;;25.17;62.92
50592;BME280;36548;50.506;30.834;2023-08-21T03:04:10;100092.67;;;25.16;62.87
50592;BME280;36548;50.506;30.834;2023-08-21T03:05:21;100101.11;;;25.15;62.89
50592;BME280;36548;50.506;30.834;2023-08-21T03:06:30;100092.47;;;25.18;62.92
50592;BME280;36548;50.506;30.834;2023-08-21T03:07:44;100093.63;;;25.30;62.92
50592;BME280;36548;50.506;30.834;2023-08-21T03:08:53;100092.09;;;25.21;62.90
50592;BME280;36548;50.506;30.834;2023-08-21T03:10:09;100095.16;;;25.33;62.74
50592;BME280;36548;50.506;30.834;2023-08-21T03:11:21;100100.33;;;25.21;62.73
50592;BME280;36548;50.506;30.834;2023-08-21T03:12:37;100089.00;;;25.31;62.95
50592;BME280;36548;50.506;30.834;2023-08-21T03:13:48;100099.27;;;25.22;62.95
50592;BME280;36548;50.506;30.834;2023-08-21T03:14:57;100094.64;;;25.23;62.96
50592;BME280;36548;50.506;30.834;2023-08-21T03:16:13;100095.83;;;25.35;62.94
50592;BME280;36548;50.506;30.834;2023-08-21T03:17:23;100094.87;;;25.28;62.94
50592;BME280;36548;50.506;30.834;2023-08-21T03:18:56;100093.30;;;25.40;62.95
50592;BME280;36548;50.506;30.834;2023-08-21T03:20:11;100095.84;;;25.42;62.96
50592;BME280;36548;50.506;30.834;2023-08-21T03:21:22;100092.41;;;25.33;62.64
50592;BME280;36548;50.506;30.834;2023-08-21T03:22:38;100097.14;;;25.46;62.84
50592;BME280;36548;50.506;30.834;2023-08-21T03:23:47;100089.09;;;25.38;62.66
50592;BME280;36548;50.506;30.834;2023-08-21T03:25:02;100088.95;;;25.52;62.78
50592;BME280;36548;50.506;30.834;2023-08-21T03:26:12;100092.31;;;25.48;62.72
50592;BME280;36548;50.506;30.834;2023-08-21T03:27:29;100089.46;;;25.63;62.55
50592;BME280;36548;50.506;30.834;2023-08-21T03:28:38;100092.59;;;25.60;62.56
50592;BME280;36548;50.506;30.834;2023-08-21T03:29:53;100088.68;;;25.76;62.31
50592;BME280;36548;50.506;30.834;2023-08-21T03:31:02;100097.55;;;25.71;62.21
50592;BME280;36548;50.506;30.834;2023-08-21T03:32:25;100093.39;;;25.89;61.63
50592;BME280;36548;50.506;30.834;2023-08-21T03:33:34;100095.06;;;25.83;61.49
50592;BME280;36548;50.506;30.834;2023-08-21T03:34:50;100094.93;;;25.98;61.42
50592;BME280;36548;50.506;30.834;2023-08-21T03:36:01;100098.48;;;25.92;61.17
50592;BME280;36548;50.506;30.834;2023-08-21T03:37:16;100095.21;;;26.10;61.02
50592;BME280;36548;50.506;30.834;2023-08-21T03:38:26;100099.42;;;26.06;60.89
50592;BME280;36548;50.506;30.834;2023-08-21T03:39:35;100105.41;;;26.16;60.74
50592;BME280;36548;50.506;30.834;2023-08-21T03:40:45;100090.22;;;26.27;60.45
50592;BME280;36548;50.506;30.834;2023-08-21T03:41:55;100091.72;;;26.36;59.98
50592;BME280;36548;50.506;30.834;2023-08-21T03:43:05;100089.84;;;26.50;59.70
50592;BME280;36548;50.506;30.834;2023-08-21T03:44:20;100094.38;;;26.78;59.27
50592;BME280;36548;50.506;30.834;2023-08-21T03:45:33;100096.31;;;26.84;58.73
50592;BME280;36548;50.506;30.834;2023-08-21T03:46:50;100083.20;;;27.19;58.21
50592;BME280;36548;50.506;30.834;2023-08-21T03:47:59;100091.66;;;27.25;57.32
50592;BME280;36548;50.506;30.834;2023-08-21T03:49:22;100082.95;;;27.34;56.38
50592;BME280;36548;50.506;30.834;2023-08-21T03:50:31;100092.30;;;27.20;56.44
50592;BME280;36548;50.506;30.834;2023-08-21T03:51:47;100084.04;;;27.20;56.62
50592;BME280;36548;50.506;30.834;2023-08-21T03:52:56;100094.84;;;27.15;57.16
50592;BME280;36548;50.506;30.834;2023-08-21T03:54:06;100092.50;;;27.32;56.95
50592;BME280;36548;50.506;30.834;2023-08-21T03:55:23;100083.36;;;27.71;56.10
50592;BME280;36548;50.506;30.834;2023-08-21T03:56:32;100097.07;;;27.92;55.67
50592;BME280;36548;50.506;30.834;2023-08-21T03:57:42;100086.83;;;28.19;54.10
50592;BME280;36548;50.506;30.834;2023-08-21T03:58:52;100092.27;;;28.39;52.99
50592;BME280;36548;50.506;30.834;2023-08-21T04:00:14;100085.97;;;28.64;52.76
50592;BME280;36548;50.506;30.834;2023-08-21T04:01:26;100091.00;;;28.73;52.76
50592;BME280;36548;50.506;30.834;2023-08-21T04:02:43;100085.16;;;29.14;51.67
50592;BME280;36548;50.506;30.834;2023-08-21T04:03:52;100095.31;;;29.27;51.18
50592;BME280;36548;50.506;30.834;2023-08-21T04:05:09;100090.46;;;29.66;50.00
50592;BME280;36548;50.506;30.834;2023-08-21T04:06:20;100096.59;;;29.68;49.54
50592;BME280;36548;50.506;30.834;2023-08-21T04:07:36;100093.35;;;29.96;49.08
50592;BME280;36548;50.506;30.834;2023-08-21T04:08:46;100096.95;;;29.97;48.48
50592;BME280;36548;50.506;30.834;2023-08-21T04:10:00;100096.64;;;30.05;48.34
50592;BME280;36548;50.506;30.834;2023-08-21T04:11:10;100094.50;;;30.07;48.38
50592;BME280;36548;50.506;30.834;2023-08-21T04:12:20;100090.95;;;30.00;48.02
50592;BME280;36548;50.506;30.834;2023-08-21T04:13:30;100091.34;;;30.03;48.26
50592;BME280;36548;50.506;30.834;2023-08-21T04:14:40;100097.19;;;29.95;47.91
50592;BME280;36548;50.506;30.834;2023-08-21T04:15:49;100092.59;;;29.89;48.31
50592;BME280;36548;50.506;30.834;2023-08-21T04:17:00;100100.30;;;29.80;48.59
50592;BME280;36548;50.506;30.834;2023-08-21T04:18:17;100099.70;;;29.78;48.85
50592;BME280;36548;50.506;30.834;2023-08-21T04:19:28;100097.52;;;29.62;49.00
50592;BME280;36548;50.506;30.834;2023-08-21T04:20:47;100091.36;;;29.59;48.86
50592;BME280;36548;50.506;30.834;2023-08-21T04:21:57;100093.70;;;29.37;49.25
50592;BME280;36548;50.506;30.834;2023-08-21T04:23:08;100094.45;;;29.26;49.57
50592;BME280;36548;50.506;30.834;2023-08-21T04:24:23;100094.22;;;29.28;50.08
50592;BME280;36548;50.506;30.834;2023-08-21T04:25:32;100090.92;;;29.12;50.09
50592;BME280;36548;50.506;30.834;2023-08-21T04:26:48;100090.69;;;29.14;50.34
50592;BME280;36548;50.506;30.834;2023-08-21T04:27:58;100097.45;;;28.93;50.36
50592;BME280;36548;50.506;30.834;2023-08-21T04:29:08;100090.53;;;28.83;50.82
50592;BME280;36548;50.506;30.834;2023-08-21T04:30:20;100092.73;;;28.68;51.01
50592;BME280;36548;50.506;30.834;2023-08-21T04:31:35;100094.89;;;28.59;51.57
50592;BME280;36548;50.506;30.834;2023-08-21T04:32:46;100094.16;;;28.38;51.81
50592;BME280;36548;50.506;30.834;2023-08-21T04:33:56;100092.98;;;28.21;52.16
50592;BME280;36548;50.506;30.834;2023-08-21T04:35:06;100099.16;;;28.10;52.60
50592;BME280;36548;50.506;30.834;2023-08-21T04:36:24;100093.87;;;28.08;52.97
50592;BME280;36548;50.506;30.834;2023-08-21T04:37:34;100094.36;;;27.85;53.24
50592;BME280;36548;50.506;30.834;2023-08-21T04:38:44;100096.48;;;27.76;53.68
50592;BME280;36548;50.506;30.834;2023-08-21T04:40:06;100091.82;;;27.83;53.96
50592;BME280;36548;50.506;30.834;2023-08-21T04:41:16;100092.46;;;27.72;54.01
50592;BME280;36548;50.506;30.834;2023-08-21T04:42:31;100094.77;;;27.82;54.24
50592;BME280;36548;50.506;30.834;2023-08-21T04:43:42;100086.33;;;27.70;54.29
50592;BME280;36548;50.506;30.834;2023-08-21T04:44:51;100098.84;;;27.72;54.51
50592;BME280;36548;50.506;30.834;2023-08-21T04:46:10;100092.67;;;27.77;54.33
50592;BME280;36548;50.506;30.834;2023-08-21T04:47:27;100092.06;;;27.68;54.53
50592;BME280;36548;50.506;30.834;2023-08-21T04:48:39;100094.39;;;27.71;54.56
50592;BME280;36548;50.506;30.834;2023-08-21T04:49:55;100097.52;;;27.88;54.65
50592;BME280;36548;50.506;30.834;2023-08-21T04:51:05;100100.28;;;27.82;54.45
50592;BME280;36548;50.506;30.834;2023-08-21T04:52:26;100101.75;;;27.91;54.37
50592;BME280;36548;50.506;30.834;2023-08-21T04:53:36;100101.78;;;27.78;54.59
50592;BME280;36548;50.506;30.834;2023-08-21T04:54:48;100102.86;;;27.83;54.71
50592;BME280;36548;50.506;30.834;2023-08-21T04:56:00;100107.06;;;27.86;54.73
50592;BME280;36548;50.506;30.834;2023-08-21T04:57:11;100103.67;;;27.90;54.66
50592;BME280;36548;50.506;30.834;2023-08-21T04:58:33;100100.66;;;28.05;54.50
50592;BME280;36548;50.506;30.834;2023-08-21T04:59:44;100100.91;;;27.97;54.27
50592;BME280;36548;50.506;30.834;2023-08-21T05:00:53;100110.02;;;27.98;54.15
50592;BME280;36548;50.506;30.834;2023-08-21T05:02:03;100109.59;;;27.94;54.12
50592;BME280;36548;50.506;30.834;2023-08-21T05:03:18;100110.47;;;28.01;54.22
50592;BME280;36548;50.506;30.834;2023-08-21T05:04:29;100110.86;;;27.92;54.02
50592;BME280;36548;50.506;30.834;2023-08-21T05:05:54;100114.06;;;28.02;54.32
50592;BME280;36548;50.506;30.834;2023-08-21T05:07:05;100115.75;;;27.96;54.31
50592;BME280;36548;50.506;30.834;2023-08-21T05:08:16;100107.06;;;27.99;54.10
50592;BME280;36548;50.506;30.834;2023-08-21T05:09:25;100114.05;;;28.09;53.97
50592;BME280;36548;50.506;30.834;2023-08-21T05:10:36;100110.01;;;28.11;53.87
50592;BME280;36548;50.506;30.834;2023-08-21T05:11:51;100102.91;;;28.29;53.78
50592;BME280;36548;50.506;30.834;2023-08-21T05:13:00;100106.34;;;28.24;53.68
50592;BME280;36548;50.506;30.834;2023-08-21T05:14:16;100108.83;;;28.39;53.76
50592;BME280;36548;50.506;30.834;2023-08-21T05:15:28;100115.43;;;28.31;53.07
50592;BME280;36548;50.506;30.834;2023-08-21T05:16:44;100106.20;;;28.51;53.25
50592;BME280;36548;50.506;30.834;2023-08-21T05:17:55;100108.98;;;28.44;52.98
50592;BME280;36548;50.506;30.834;2023-08-21T05:19:04;100116.62;;;28.49;52.92
50592;BME280;36548;50.506;30.834;2023-08-21T05:20:26;100108.06;;;28.64;53.09
50592;BME280;36548;50.506;30.834;2023-08-21T05:21:36;100111.69;;;28.57;52.76
50592;BME280;36548;50.506;30.834;2023-08-21T05:22:51;100110.78;;;28.70;52.78
50592;BME280;36548;50.506;30.834;2023-08-21T05:24:00;100113.77;;;28.69;52.78
50592;BME280;36548;50.506;30.834;2023-08-21T05:25:11;100112.67;;;28.77;52.58
50592;BME280;36548;50.506;30.834;2023-08-21T05:26:28;100109.57;;;28.91;52.34
50592;BME280;36548;50.506;30.834;2023-08-21T05:27:37;100111.77;;;28.83;52.23
50592;BME280;36548;50.506;30.834;2023-08-21T05:28:47;100110.25;;;28.87;51.96
50592;BME280;36548;50.506;30.834;2023-08-21T05:29:57;100104.91;;;28.92;52.08
50592;BME280;36548;50.506;30.834;2023-08-21T05:31:07;100107.67;;;28.92;51.88
50592;BME280;36548;50.506;30.834;2023-08-21T05:32:23;100106.16;;;28.96;51.78
50592;BME280;36548;50.506;30.834;2023-08-21T05:33:32;100112.18;;;28.86;51.93
50592;BME280;36548;50.506;30.834;2023-08-21T05:34:41;100105.97;;;28.91;52.12
50592;BME280;36548;50.506;30.834;2023-08-21T05:35:51;100115.09;;;28.91;51.90
50592;BME280;36548;50.506;30.834;2023-08-21T05:37:08;100107.78;;;29.04;51.93
50592;BME280;36548;50.506;30.834;2023-08-21T05:38:19;100105.70;;;28.99;51.81
50592;BME280;36548;50.506;30.834;2023-08-21T05:39:34;100108.14;;;29.14;51.74
50592;BME280;36548;50.506;30.834;2023-08-21T05:40:43;100109.25;;;29.06;51.99
50592;BME280;36548;50.506;30.834;2023-08-21T05:41:53;100113.48;;;29.09;51.96
50592;BME280;36548;50.506;30.834;2023-08-21T05:43:09;100107.20;;;29.27;52.04
50592;BME280;36548;50.506;30.834;2023-08-21T05:44:21;100112.30;;;29.23;51.73
50592;BME280;36548;50.506;30.834;2023-08-21T05:45:37;100111.33;;;29.43;51.55
50592;BME280;36548;50.506;30.834;2023-08-21T05:46:47;100112.40;;;29.42;51.33
50592;BME280;36548;50.506;30.834;2023-08-21T05:47:57;100119.77;;;29.48;50.88
50592;BME280;36548;50.506;30.834;2023-08-21T05:49:07;100114.18;;;29.55;51.02
50592;BME280;36548;50.506;30.834;2023-08-21T05:50:17;100118.19;;;29.59;50.90
50592;BME280;36548;50.506;30.834;2023-08-21T05:51:27;100114.29;;;29.67;50.87
50592;BME280;36548;50.506;30.834;2023-08-21T05:52:36;100114.83;;;29.75;50.59
50592;BME280;36548;50.506;30.834;2023-08-21T05:53:52;100108.02;;;29.97;50.26
50592;BME280;36548;50.506;30.834;2023-08-21T05:55:03;100108.25;;;29.95;50.03
50592;BME280;36548;50.506;30.834;2023-08-21T05:56:19;100115.23;;;30.16;49.57
50592;BME280;36548;50.506;30.834;2023-08-21T05:57:28;100111.70;;;30.09;49.17
50592;BME280;36548;50.506;30.834;2023-08-21T05:58:38;100116.41;;;30.08;49.37
50592;BME280;36548;50.506;30.834;2023-08-21T05:59:53;100112.23;;;30.18;49.14
50592;BME280;36548;50.506;30.834;2023-08-21T06:01:02;100107.00;;;30.09;49.52
50592;BME280;36548;50.506;30.834;2023-08-21T06:02:18;100105.55;;;30.25;49.28
50592;BME280;36548;50.506;30.834;2023-08-21T06:03:29;100113.09;;;30.18;49.31
50592;BME280;36548;50.506;30.834;2023-08-21T06:04:43;100113.85;;;30.25;49.27
50592;BME280;36548;50.506;30.834;2023-08-21T06:06:00;100107.16;;;30.33;48.70
50592;BME280;36548;50.506;30.834;2023-08-21T06:07:09;100114.56;;;30.21;48.69
50592;BME280;36548;50.506;30.834;2023-08-21T06:08:18;100112.23;;;30.18;48.89
50592;BME280;36548;50.506;30.834;2023-08-21T06:09:35;100104.39;;;30.33;48.93
50592;BME280;36548;50.506;30.834;2023-08-21T06:10:51;100111.47;;;30.29;48.77
50592;BME280;36548;50.506;30.834;2023-08-21T06:12:08;100104.22;;;30.47;48.61
50592;BME280;36548;50.506;30.834;2023-08-21T06:13:20;100103.39;;;30.46;48.63
50592;BME280;36548;50.506;30.834;2023-08-21T06:14:41;100100.70;;;30.70;48.18
50592;BME280;36548;50.506;30.834;2023-08-21T06:15:52;100106.19;;;30.58;47.93
50592;BME280;36548;50.506;30.834;2023-08-21T06:17:04;100102.97;;;30.61;47.69
50592;BME280;36548;50.506;30.834;2023-08-21T06:18:21;100098.67;;;30.77;47.33
50592;BME280;36548;50.506;30.834;2023-08-21T06:19:31;100106.60;;;30.73;47.45
50592;BME280;36548;50.506;30.834;2023-08-21T06:20:44;100099.51;;;30.77;47.30
50592;BME280;36548;50.506;30.834;2023-08-21T06:22:00;100106.89;;;30.84;47.09
50592;BME280;36548;50.506;30.834;2023-08-21T06:23:12;100103.72;;;30.68;47.17